<?xml version="1.0" encoding="UTF-8" standalone="no" ?>
<gpx xmlns="http://www.topografix.com/GPX/1/1" xmlns:xsi="http://www.w3.org/2001/XMLSchema-instance" xsi:schemaLocation="http://www.topografix.com/GPX/1/1 http://www.topografix.com/GPX/1/1/gpx.xsd" version="1.1" creator="VisuGPX - https://www.visugpx.com">
  <metadata>
    <name>13: Plateau de Bouissac - combe de Guiraudou</name>
    <desc><![CDATA[13: Plateau de Bouissac - combe de Guiraudou]]></desc>
  </metadata>
  <wpt lat="43.83631" lon="3.12279">
    <ele>520</ele>
    <name><![CDATA[Accueil PdC Centre]]></name>
  </wpt>
  <wpt lat="43.83477" lon="3.10131">
    <ele>705</ele>
    <name><![CDATA[BSA]]></name>
  </wpt>
  <wpt lat="43.83407" lon="3.10217">
    <ele>710.1</ele>
    <name><![CDATA[BSB]]></name>
  </wpt>
  <wpt lat="43.83494" lon="3.10351">
    <ele>715.1</ele>
    <name><![CDATA[BSC]]></name>
  </wpt>
  <wpt lat="43.82969" lon="3.09937">
    <ele>744.9</ele>
    <name><![CDATA[BSE]]></name>
  </wpt>
  <wpt lat="43.82858" lon="3.09742">
    <ele>740.1</ele>
    <name><![CDATA[BSK]]></name>
  </wpt>
  <wpt lat="43.83778" lon="3.10063">
    <ele>589.9</ele>
    <name><![CDATA[CIA]]></name>
  </wpt>
  <wpt lat="43.83207" lon="3.09912">
    <ele>680</ele>
    <name><![CDATA[CSJ]]></name>
  </wpt>
  <wpt lat="43.83612" lon="3.10162">
    <ele>640.1</ele>
    <name><![CDATA[CSK]]></name>
  </wpt>
  <wpt lat="43.83895" lon="3.10332">
    <ele>625</ele>
    <name><![CDATA[CSL]]></name>
  </wpt>
  <wpt lat="43.83529" lon="3.11427">
    <ele>560.1</ele>
    <name><![CDATA[GUA]]></name>
  </wpt>
  <wpt lat="43.83346" lon="3.11202">
    <ele>569.9</ele>
    <name><![CDATA[GUB]]></name>
  </wpt>
  <wpt lat="43.83217" lon="3.11049">
    <ele>580</ele>
    <name><![CDATA[GUC]]></name>
  </wpt>
  <wpt lat="43.8298" lon="3.10534">
    <ele>619.9</ele>
    <name><![CDATA[GUD]]></name>
  </wpt>
  <wpt lat="43.82727" lon="3.10152">
    <ele>650</ele>
    <name><![CDATA[GUE]]></name>
  </wpt>
  <wpt lat="43.8255" lon="3.09785">
    <ele>675</ele>
    <name><![CDATA[GUF]]></name>
  </wpt>
  <wpt lat="43.84037" lon="3.10487">
    <ele>550</ele>
    <name><![CDATA[MDF]]></name>
  </wpt>
  <wpt lat="43.83657" lon="3.11798">
    <ele>530.1</ele>
    <name><![CDATA[PCD]]></name>
  </wpt>
  <wpt lat="43.83852" lon="3.10886">
    <ele>545</ele>
    <name><![CDATA[SBA]]></name>
  </wpt>
  <trk>
    <name><![CDATA[RoTr 13 PdC]]></name>
    <trkseg>
      <trkpt lat="43.83657" lon="3.11795">
        <ele>535</ele>
        <time>2010-01-01T00:00:00Z</time>
      </trkpt>
      <trkpt lat="43.83657" lon="3.11737">
        <ele>536</ele>
        <time>2010-01-01T00:01:20Z</time>
      </trkpt>
      <trkpt lat="43.83653" lon="3.11697">
        <ele>538</ele>
        <time>2010-01-01T00:02:15Z</time>
      </trkpt>
      <trkpt lat="43.83668" lon="3.11564">
        <ele>543</ele>
        <time>2010-01-01T00:05:20Z</time>
      </trkpt>
      <trkpt lat="43.83684" lon="3.11478">
        <ele>549</ele>
        <time>2010-01-01T00:07:22Z</time>
      </trkpt>
      <trkpt lat="43.83773" lon="3.11139">
        <ele>558</ele>
        <time>2010-01-01T00:15:38Z</time>
      </trkpt>
      <trkpt lat="43.83772" lon="3.11082">
        <ele>561</ele>
        <time>2010-01-01T00:16:57Z</time>
      </trkpt>
      <trkpt lat="43.83821" lon="3.10925">
        <ele>554</ele>
        <time>2010-01-01T00:20:51Z</time>
      </trkpt>
      <trkpt lat="43.83851" lon="3.10883">
        <ele>555</ele>
        <time>2010-01-01T00:22:13Z</time>
      </trkpt>
      <trkpt lat="43.83853" lon="3.10881">
        <ele>555</ele>
        <time>2010-01-01T00:22:17Z</time>
      </trkpt>
      <trkpt lat="43.83897" lon="3.10809">
        <ele>556</ele>
        <time>2010-01-01T00:24:26Z</time>
      </trkpt>
      <trkpt lat="43.83932" lon="3.10747">
        <ele>558</ele>
        <time>2010-01-01T00:26:16Z</time>
      </trkpt>
      <trkpt lat="43.8405" lon="3.10519">
        <ele>564</ele>
        <time>2010-01-01T00:32:42Z</time>
      </trkpt>
      <trkpt lat="43.84048" lon="3.10503">
        <ele>563</ele>
        <time>2010-01-01T00:33:04Z</time>
      </trkpt>
      <trkpt lat="43.84038" lon="3.10488">
        <ele>564</ele>
        <time>2010-01-01T00:33:32Z</time>
      </trkpt>
      <trkpt lat="43.84037" lon="3.10487">
        <ele>564</ele>
        <time>2010-01-01T00:33:34Z</time>
      </trkpt>
      <trkpt lat="43.84025" lon="3.10475">
        <ele>564</ele>
        <time>2010-01-01T00:34:01Z</time>
      </trkpt>
      <trkpt lat="43.84015" lon="3.10458">
        <ele>565</ele>
        <time>2010-01-01T00:34:31Z</time>
      </trkpt>
      <trkpt lat="43.83962" lon="3.10292">
        <ele>586</ele>
        <time>2010-01-01T00:38:42Z</time>
      </trkpt>
      <trkpt lat="43.83931" lon="3.10183">
        <ele>584</ele>
        <time>2010-01-01T00:41:22Z</time>
      </trkpt>
      <trkpt lat="43.83913" lon="3.1014">
        <ele>582</ele>
        <time>2010-01-01T00:42:31Z</time>
      </trkpt>
      <trkpt lat="43.83897" lon="3.10125">
        <ele>585</ele>
        <time>2010-01-01T00:43:07Z</time>
      </trkpt>
      <trkpt lat="43.83781" lon="3.10066">
        <ele>605</ele>
        <time>2010-01-01T00:47:04Z</time>
      </trkpt>
      <trkpt lat="43.83779" lon="3.10068">
        <ele>605</ele>
        <time>2010-01-01T00:47:08Z</time>
      </trkpt>
      <trkpt lat="43.83778" lon="3.10068">
        <ele>605</ele>
        <time>2010-01-01T00:47:09Z</time>
      </trkpt>
      <trkpt lat="43.83779" lon="3.10072">
        <ele>604</ele>
        <time>2010-01-01T00:47:15Z</time>
      </trkpt>
      <trkpt lat="43.83802" lon="3.10097">
        <ele>602</ele>
        <time>2010-01-01T00:48:11Z</time>
      </trkpt>
      <trkpt lat="43.83854" lon="3.10148">
        <ele>600</ele>
        <time>2010-01-01T00:50:12Z</time>
      </trkpt>
      <trkpt lat="43.83871" lon="3.10179">
        <ele>600</ele>
        <time>2010-01-01T00:51:06Z</time>
      </trkpt>
      <trkpt lat="43.83881" lon="3.10215">
        <ele>604</ele>
        <time>2010-01-01T00:51:58Z</time>
      </trkpt>
      <trkpt lat="43.83887" lon="3.10249">
        <ele>608</ele>
        <time>2010-01-01T00:52:47Z</time>
      </trkpt>
      <trkpt lat="43.83892" lon="3.10299">
        <ele>614</ele>
        <time>2010-01-01T00:53:56Z</time>
      </trkpt>
      <trkpt lat="43.83898" lon="3.10323">
        <ele>615</ele>
        <time>2010-01-01T00:54:31Z</time>
      </trkpt>
      <trkpt lat="43.83894" lon="3.10328">
        <ele>618</ele>
        <time>2010-01-01T00:54:41Z</time>
      </trkpt>
      <trkpt lat="43.83893" lon="3.10328">
        <ele>619</ele>
        <time>2010-01-01T00:54:44Z</time>
      </trkpt>
      <trkpt lat="43.83891" lon="3.10324">
        <ele>619</ele>
        <time>2010-01-01T00:54:51Z</time>
      </trkpt>
      <trkpt lat="43.83875" lon="3.10265">
        <ele>616</ele>
        <time>2010-01-01T00:56:18Z</time>
      </trkpt>
      <trkpt lat="43.83851" lon="3.10218">
        <ele>617</ele>
        <time>2010-01-01T00:57:36Z</time>
      </trkpt>
      <trkpt lat="43.83826" lon="3.10193">
        <ele>620</ele>
        <time>2010-01-01T00:58:35Z</time>
      </trkpt>
      <trkpt lat="43.83791" lon="3.10173">
        <ele>626</ele>
        <time>2010-01-01T00:59:48Z</time>
      </trkpt>
      <trkpt lat="43.83706" lon="3.10139">
        <ele>635</ele>
        <time>2010-01-01T01:02:35Z</time>
      </trkpt>
      <trkpt lat="43.83672" lon="3.10138">
        <ele>640</ele>
        <time>2010-01-01T01:03:41Z</time>
      </trkpt>
      <trkpt lat="43.83628" lon="3.1015">
        <ele>653</ele>
        <time>2010-01-01T01:05:07Z</time>
      </trkpt>
      <trkpt lat="43.83617" lon="3.10148">
        <ele>656</ele>
        <time>2010-01-01T01:05:27Z</time>
      </trkpt>
      <trkpt lat="43.83615" lon="3.10147">
        <ele>656</ele>
        <time>2010-01-01T01:05:31Z</time>
      </trkpt>
      <trkpt lat="43.83612" lon="3.10093">
        <ele>647</ele>
        <time>2010-01-01T01:06:45Z</time>
      </trkpt>
      <trkpt lat="43.83593" lon="3.10058">
        <ele>647</ele>
        <time>2010-01-01T01:07:46Z</time>
      </trkpt>
      <trkpt lat="43.83574" lon="3.10038">
        <ele>649</ele>
        <time>2010-01-01T01:08:31Z</time>
      </trkpt>
      <trkpt lat="43.83559" lon="3.10025">
        <ele>650</ele>
        <time>2010-01-01T01:09:06Z</time>
      </trkpt>
      <trkpt lat="43.83533" lon="3.10016">
        <ele>655</ele>
        <time>2010-01-01T01:09:57Z</time>
      </trkpt>
      <trkpt lat="43.83467" lon="3.10003">
        <ele>665</ele>
        <time>2010-01-01T01:12:03Z</time>
      </trkpt>
      <trkpt lat="43.83424" lon="3.09989">
        <ele>671</ele>
        <time>2010-01-01T01:13:27Z</time>
      </trkpt>
      <trkpt lat="43.83329" lon="3.0997">
        <ele>684</ele>
        <time>2010-01-01T01:16:30Z</time>
      </trkpt>
      <trkpt lat="43.83269" lon="3.09952">
        <ele>689</ele>
        <time>2010-01-01T01:18:28Z</time>
      </trkpt>
      <trkpt lat="43.83248" lon="3.09944">
        <ele>690</ele>
        <time>2010-01-01T01:19:08Z</time>
      </trkpt>
      <trkpt lat="43.83229" lon="3.09929">
        <ele>692</ele>
        <time>2010-01-01T01:19:50Z</time>
      </trkpt>
      <trkpt lat="43.83217" lon="3.09912">
        <ele>693</ele>
        <time>2010-01-01T01:20:23Z</time>
      </trkpt>
      <trkpt lat="43.83214" lon="3.09911">
        <ele>694</ele>
        <time>2010-01-01T01:20:30Z</time>
      </trkpt>
      <trkpt lat="43.8321" lon="3.09915">
        <ele>694</ele>
        <time>2010-01-01T01:20:38Z</time>
      </trkpt>
      <trkpt lat="43.8321" lon="3.09915">
        <ele>694</ele>
        <time>2010-01-01T01:20:39Z</time>
      </trkpt>
      <trkpt lat="43.83213" lon="3.09922">
        <ele>695</ele>
        <time>2010-01-01T01:20:50Z</time>
      </trkpt>
      <trkpt lat="43.83244" lon="3.09964">
        <ele>694</ele>
        <time>2010-01-01T01:22:12Z</time>
      </trkpt>
      <trkpt lat="43.83287" lon="3.09997">
        <ele>692</ele>
        <time>2010-01-01T01:23:46Z</time>
      </trkpt>
      <trkpt lat="43.83347" lon="3.10037">
        <ele>695</ele>
        <time>2010-01-01T01:25:54Z</time>
      </trkpt>
      <trkpt lat="43.83381" lon="3.10059">
        <ele>697</ele>
        <time>2010-01-01T01:27:05Z</time>
      </trkpt>
      <trkpt lat="43.8345" lon="3.10095">
        <ele>694</ele>
        <time>2010-01-01T01:29:24Z</time>
      </trkpt>
      <trkpt lat="43.83462" lon="3.10104">
        <ele>693</ele>
        <time>2010-01-01T01:29:52Z</time>
      </trkpt>
      <trkpt lat="43.83472" lon="3.10116">
        <ele>692</ele>
        <time>2010-01-01T01:30:16Z</time>
      </trkpt>
      <trkpt lat="43.83473" lon="3.10132">
        <ele>694</ele>
        <time>2010-01-01T01:30:39Z</time>
      </trkpt>
      <trkpt lat="43.83473" lon="3.10134">
        <ele>694</ele>
        <time>2010-01-01T01:30:41Z</time>
      </trkpt>
      <trkpt lat="43.8346" lon="3.10158">
        <ele>700</ele>
        <time>2010-01-01T01:31:24Z</time>
      </trkpt>
      <trkpt lat="43.83442" lon="3.10167">
        <ele>705</ele>
        <time>2010-01-01T01:32:00Z</time>
      </trkpt>
      <trkpt lat="43.83411" lon="3.10205">
        <ele>712</ele>
        <time>2010-01-01T01:33:19Z</time>
      </trkpt>
      <trkpt lat="43.83408" lon="3.10211">
        <ele>713</ele>
        <time>2010-01-01T01:33:29Z</time>
      </trkpt>
      <trkpt lat="43.83409" lon="3.10218">
        <ele>713</ele>
        <time>2010-01-01T01:33:38Z</time>
      </trkpt>
      <trkpt lat="43.83409" lon="3.10219">
        <ele>713</ele>
        <time>2010-01-01T01:33:39Z</time>
      </trkpt>
      <trkpt lat="43.83411" lon="3.10226">
        <ele>713</ele>
        <time>2010-01-01T01:33:51Z</time>
      </trkpt>
      <trkpt lat="43.83437" lon="3.10235">
        <ele>709</ele>
        <time>2010-01-01T01:34:41Z</time>
      </trkpt>
      <trkpt lat="43.83464" lon="3.10268">
        <ele>707</ele>
        <time>2010-01-01T01:35:50Z</time>
      </trkpt>
      <trkpt lat="43.83476" lon="3.10292">
        <ele>708</ele>
        <time>2010-01-01T01:36:30Z</time>
      </trkpt>
      <trkpt lat="43.83491" lon="3.10336">
        <ele>711</ele>
        <time>2010-01-01T01:37:37Z</time>
      </trkpt>
      <trkpt lat="43.83489" lon="3.10354">
        <ele>711</ele>
        <time>2010-01-01T01:38:02Z</time>
      </trkpt>
      <trkpt lat="43.83486" lon="3.10354">
        <ele>711</ele>
        <time>2010-01-01T01:38:06Z</time>
      </trkpt>
      <trkpt lat="43.83334" lon="3.1029">
        <ele>721</ele>
        <time>2010-01-01T01:43:09Z</time>
      </trkpt>
      <trkpt lat="43.83331" lon="3.10287">
        <ele>721</ele>
        <time>2010-01-01T01:43:16Z</time>
      </trkpt>
      <trkpt lat="43.83159" lon="3.10212">
        <ele>732</ele>
        <time>2010-01-01T01:49:00Z</time>
      </trkpt>
      <trkpt lat="43.83115" lon="3.1016">
        <ele>730</ele>
        <time>2010-01-01T01:50:50Z</time>
      </trkpt>
      <trkpt lat="43.83114" lon="3.10125">
        <ele>732</ele>
        <time>2010-01-01T01:51:38Z</time>
      </trkpt>
      <trkpt lat="43.83128" lon="3.10089">
        <ele>733</ele>
        <time>2010-01-01T01:52:35Z</time>
      </trkpt>
      <trkpt lat="43.83122" lon="3.10078">
        <ele>733</ele>
        <time>2010-01-01T01:52:53Z</time>
      </trkpt>
      <trkpt lat="43.83102" lon="3.10041">
        <ele>733</ele>
        <time>2010-01-01T01:53:57Z</time>
      </trkpt>
      <trkpt lat="43.82969" lon="3.09938">
        <ele>740</ele>
        <time>2010-01-01T01:58:47Z</time>
      </trkpt>
      <trkpt lat="43.82966" lon="3.09937">
        <ele>741</ele>
        <time>2010-01-01T01:58:52Z</time>
      </trkpt>
      <trkpt lat="43.82854" lon="3.09742">
        <ele>736</ele>
        <time>2010-01-01T02:04:35Z</time>
      </trkpt>
      <trkpt lat="43.82853" lon="3.09741">
        <ele>736</ele>
        <time>2010-01-01T02:04:38Z</time>
      </trkpt>
      <trkpt lat="43.82813" lon="3.09747">
        <ele>732</ele>
        <time>2010-01-01T02:05:55Z</time>
      </trkpt>
      <trkpt lat="43.82759" lon="3.09714">
        <ele>723</ele>
        <time>2010-01-01T02:07:47Z</time>
      </trkpt>
      <trkpt lat="43.82723" lon="3.09703">
        <ele>716</ele>
        <time>2010-01-01T02:08:58Z</time>
      </trkpt>
      <trkpt lat="43.82694" lon="3.09684">
        <ele>709</ele>
        <time>2010-01-01T02:09:59Z</time>
      </trkpt>
      <trkpt lat="43.82668" lon="3.09676">
        <ele>703</ele>
        <time>2010-01-01T02:10:49Z</time>
      </trkpt>
      <trkpt lat="43.82611" lon="3.09757">
        <ele>695</ele>
        <time>2010-01-01T02:13:26Z</time>
      </trkpt>
      <trkpt lat="43.82596" lon="3.09753">
        <ele>692</ele>
        <time>2010-01-01T02:13:55Z</time>
      </trkpt>
      <trkpt lat="43.82551" lon="3.09785">
        <ele>689</ele>
        <time>2010-01-01T02:15:31Z</time>
      </trkpt>
      <trkpt lat="43.8255" lon="3.09786">
        <ele>689</ele>
        <time>2010-01-01T02:15:33Z</time>
      </trkpt>
      <trkpt lat="43.82576" lon="3.09822">
        <ele>685</ele>
        <time>2010-01-01T02:16:43Z</time>
      </trkpt>
      <trkpt lat="43.82602" lon="3.0992">
        <ele>682</ele>
        <time>2010-01-01T02:19:06Z</time>
      </trkpt>
      <trkpt lat="43.82699" lon="3.10036">
        <ele>678</ele>
        <time>2010-01-01T02:23:10Z</time>
      </trkpt>
      <trkpt lat="43.82729" lon="3.10096">
        <ele>679</ele>
        <time>2010-01-01T02:24:50Z</time>
      </trkpt>
      <trkpt lat="43.82727" lon="3.1015">
        <ele>673</ele>
        <time>2010-01-01T02:26:05Z</time>
      </trkpt>
      <trkpt lat="43.82727" lon="3.10153">
        <ele>673</ele>
        <time>2010-01-01T02:26:10Z</time>
      </trkpt>
      <trkpt lat="43.82733" lon="3.10209">
        <ele>666</ele>
        <time>2010-01-01T02:27:27Z</time>
      </trkpt>
      <trkpt lat="43.82751" lon="3.10254">
        <ele>658</ele>
        <time>2010-01-01T02:28:37Z</time>
      </trkpt>
      <trkpt lat="43.82777" lon="3.10298">
        <ele>661</ele>
        <time>2010-01-01T02:29:56Z</time>
      </trkpt>
      <trkpt lat="43.82829" lon="3.10354">
        <ele>654</ele>
        <time>2010-01-01T02:32:01Z</time>
      </trkpt>
      <trkpt lat="43.82883" lon="3.10428">
        <ele>650</ele>
        <time>2010-01-01T02:34:26Z</time>
      </trkpt>
      <trkpt lat="43.82981" lon="3.10536">
        <ele>643</ele>
        <time>2010-01-01T02:38:25Z</time>
      </trkpt>
      <trkpt lat="43.82982" lon="3.10538">
        <ele>643</ele>
        <time>2010-01-01T02:38:28Z</time>
      </trkpt>
      <trkpt lat="43.83018" lon="3.10612">
        <ele>641</ele>
        <time>2010-01-01T02:40:31Z</time>
      </trkpt>
      <trkpt lat="43.83101" lon="3.10829">
        <ele>626</ele>
        <time>2010-01-01T02:46:08Z</time>
      </trkpt>
      <trkpt lat="43.83135" lon="3.10896">
        <ele>625</ele>
        <time>2010-01-01T02:48:01Z</time>
      </trkpt>
      <trkpt lat="43.83146" lon="3.10897">
        <ele>627</ele>
        <time>2010-01-01T02:48:22Z</time>
      </trkpt>
      <trkpt lat="43.83179" lon="3.10961">
        <ele>618</ele>
        <time>2010-01-01T02:50:10Z</time>
      </trkpt>
      <trkpt lat="43.83211" lon="3.11002">
        <ele>614</ele>
        <time>2010-01-01T02:51:34Z</time>
      </trkpt>
      <trkpt lat="43.83217" lon="3.11047">
        <ele>607</ele>
        <time>2010-01-01T02:52:37Z</time>
      </trkpt>
      <trkpt lat="43.83218" lon="3.11048">
        <ele>607</ele>
        <time>2010-01-01T02:52:39Z</time>
      </trkpt>
      <trkpt lat="43.83237" lon="3.11056">
        <ele>604</ele>
        <time>2010-01-01T02:53:16Z</time>
      </trkpt>
      <trkpt lat="43.83288" lon="3.11095">
        <ele>603</ele>
        <time>2010-01-01T02:55:08Z</time>
      </trkpt>
      <trkpt lat="43.83317" lon="3.11126">
        <ele>603</ele>
        <time>2010-01-01T02:56:18Z</time>
      </trkpt>
      <trkpt lat="43.8332" lon="3.11146">
        <ele>598</ele>
        <time>2010-01-01T02:56:46Z</time>
      </trkpt>
      <trkpt lat="43.8335" lon="3.11192">
        <ele>595</ele>
        <time>2010-01-01T02:58:11Z</time>
      </trkpt>
      <trkpt lat="43.83351" lon="3.11193">
        <ele>595</ele>
        <time>2010-01-01T02:58:14Z</time>
      </trkpt>
      <trkpt lat="43.83382" lon="3.11249">
        <ele>589</ele>
        <time>2010-01-01T02:59:52Z</time>
      </trkpt>
      <trkpt lat="43.8346" lon="3.11356">
        <ele>583</ele>
        <time>2010-01-01T03:03:20Z</time>
      </trkpt>
      <trkpt lat="43.83523" lon="3.11422">
        <ele>572</ele>
        <time>2010-01-01T03:05:51Z</time>
      </trkpt>
      <trkpt lat="43.83523" lon="3.11423">
        <ele>572</ele>
        <time>2010-01-01T03:05:52Z</time>
      </trkpt>
      <trkpt lat="43.83556" lon="3.11466">
        <ele>569</ele>
        <time>2010-01-01T03:07:19Z</time>
      </trkpt>
      <trkpt lat="43.8358" lon="3.11522">
        <ele>559</ele>
        <time>2010-01-01T03:08:47Z</time>
      </trkpt>
      <trkpt lat="43.83601" lon="3.11605">
        <ele>551</ele>
        <time>2010-01-01T03:10:49Z</time>
      </trkpt>
      <trkpt lat="43.83611" lon="3.11654">
        <ele>547</ele>
        <time>2010-01-01T03:11:59Z</time>
      </trkpt>
      <trkpt lat="43.83624" lon="3.1173">
        <ele>543</ele>
        <time>2010-01-01T03:13:47Z</time>
      </trkpt>
      <trkpt lat="43.83641" lon="3.11771">
        <ele>538</ele>
        <time>2010-01-01T03:14:52Z</time>
      </trkpt>
      <trkpt lat="43.83641" lon="3.11776">
        <ele>538</ele>
        <time>2010-01-01T03:14:59Z</time>
      </trkpt>
      <trkpt lat="43.83656" lon="3.11798">
        <ele>535</ele>
        <time>2010-01-01T03:15:41Z</time>
      </trkpt>
    </trkseg>
  </trk>
</gpx>